sensor_id;sensor_type;location;lat;lon;timestamp;P1;durP1;ratioP1;P2;durP2;ratioP2
77160;SDS011;66135;0.000;0.000;2023-11-21T00:03:50;2.90;;;1.90;;
77160;SDS011;66135;0.000;0.000;2023-11-21T00:08:41;3.53;;;1.85;;
77160;SDS011;66135;0.000;0.000;2023-11-21T00:13:32;2.30;;;1.90;;
77160;SDS011;66135;0.000;0.000;2023-11-21T00:15:58;2.35;;;1.63;;
77160;SDS011;66135;0.000;0.000;2023-11-21T00:20:48;2.50;;;1.40;;
77160;SDS011;66135;0.000;0.000;2023-11-21T00:25:39;2.67;;;1.73;;
77160;SDS011;66135;0.000;0.000;2023-11-21T00:28:05;3.15;;;2.15;;
77160;SDS011;66135;0.000;0.000;2023-11-21T00:32:56;2.08;;;1.17;;
77160;SDS011;66135;0.000;0.000;2023-11-21T00:37:47;1.90;;;1.10;;
77160;SDS011;66135;0.000;0.000;2023-11-21T00:40:14;1.90;;;1.17;;
77160;SDS011;66135;0.000;0.000;2023-11-21T00:45:06;2.40;;;1.60;;
77160;SDS011;66135;0.000;0.000;2023-11-21T00:47:32;2.75;;;2.15;;
77160;SDS011;66135;0.000;0.000;2023-11-21T00:52:22;3.03;;;1.77;;
77160;SDS011;66135;0.000;0.000;2023-11-21T00:57:13;2.43;;;1.53;;
77160;SDS011;66135;0.000;0.000;2023-11-21T00:59:39;2.33;;;1.67;;
77160;SDS011;66135;0.000;0.000;2023-11-21T01:04:30;3.27;;;1.93;;
77160;SDS011;66135;0.000;0.000;2023-11-21T01:06:56;2.53;;;2.15;;
77160;SDS011;66135;0.000;0.000;2023-11-21T01:11:47;2.10;;;0.95;;
77160;SDS011;66135;0.000;0.000;2023-11-21T01:16:38;3.10;;;1.63;;
77160;SDS011;66135;0.000;0.000;2023-11-21T01:19:04;2.00;;;1.05;;
77160;SDS011;66135;0.000;0.000;2023-11-21T01:23:55;2.88;;;1.30;;
77160;SDS011;66135;0.000;0.000;2023-11-21T01:28:46;2.50;;;1.70;;
77160;SDS011;66135;0.000;0.000;2023-11-21T01:31:14;2.55;;;1.27;;
77160;SDS011;66135;0.000;0.000;2023-11-21T01:36:05;2.20;;;1.50;;
77160;SDS011;66135;0.000;0.000;2023-11-21T01:38:30;2.22;;;1.23;;
77160;SDS011;66135;0.000;0.000;2023-11-21T01:40:57;4.85;;;1.10;;
77160;SDS011;66135;0.000;0.000;2023-11-21T01:45:48;2.42;;;1.33;;
77160;SDS011;66135;0.000;0.000;2023-11-21T01:50:39;2.03;;;1.17;;
77160;SDS011;66135;0.000;0.000;2023-11-21T01:55:31;2.50;;;1.30;;
77160;SDS011;66135;0.000;0.000;2023-11-21T01:57:58;2.35;;;1.25;;
77160;SDS011;66135;0.000;0.000;2023-11-21T02:02:50;2.47;;;1.27;;
77160;SDS011;66135;0.000;0.000;2023-11-21T02:07:45;1.83;;;1.25;;
77160;SDS011;66135;0.000;0.000;2023-11-21T02:10:14;2.45;;;1.35;;
77160;SDS011;66135;0.000;0.000;2023-11-21T02:12:41;1.63;;;1.33;;
77160;SDS011;66135;0.000;0.000;2023-11-21T02:15:08;2.40;;;1.42;;
77160;SDS011;66135;0.000;0.000;2023-11-21T02:17:41;1.70;;;1.25;;
77160;SDS011;66135;0.000;0.000;2023-11-21T02:20:12;1.70;;;1.23;;
77160;SDS011;66135;0.000;0.000;2023-11-21T02:22:40;1.88;;;1.00;;
77160;SDS011;66135;0.000;0.000;2023-11-21T02:25:07;1.50;;;1.02;;
77160;SDS011;66135;0.000;0.000;2023-11-21T02:27:33;1.40;;;0.75;;
77160;SDS011;66135;0.000;0.000;2023-11-21T02:32:24;2.63;;;1.52;;
77160;SDS011;66135;0.000;0.000;2023-11-21T02:34:51;2.25;;;1.33;;
77160;SDS011;66135;0.000;0.000;2023-11-21T02:39:41;2.00;;;0.77;;
77160;SDS011;66135;0.000;0.000;2023-11-21T02:42:07;2.47;;;1.45;;
77160;SDS011;66135;0.000;0.000;2023-11-21T02:44:32;2.30;;;1.35;;
77160;SDS011;66135;0.000;0.000;2023-11-21T02:49:23;2.17;;;0.90;;
77160;SDS011;66135;0.000;0.000;2023-11-21T02:54:14;1.65;;;1.13;;
77160;SDS011;66135;0.000;0.000;2023-11-21T02:56:41;1.70;;;1.02;;
77160;SDS011;66135;0.000;0.000;2023-11-21T03:01:32;2.30;;;1.20;;
77160;SDS011;66135;0.000;0.000;2023-11-21T03:03:57;3.05;;;1.27;;
77160;SDS011;66135;0.000;0.000;2023-11-21T03:06:23;2.13;;;0.75;;
77160;SDS011;66135;0.000;0.000;2023-11-21T03:08:48;1.73;;;0.80;;
77160;SDS011;66135;0.000;0.000;2023-11-21T03:11:14;1.90;;;1.10;;
77160;SDS011;66135;0.000;0.000;2023-11-21T03:16:09;1.48;;;1.33;;
77160;SDS011;66135;0.000;0.000;2023-11-21T03:18:51;1.90;;;1.40;;
77160;SDS011;66135;0.000;0.000;2023-11-21T03:21:17;2.08;;;1.38;;
77160;SDS011;66135;0.000;0.000;2023-11-21T03:23:42;2.10;;;1.77;;
77160;SDS011;66135;0.000;0.000;2023-11-21T03:28:54;1.52;;;1.08;;
77160;SDS011;66135;0.000;0.000;2023-11-21T03:33:46;2.53;;;0.82;;
77160;SDS011;66135;0.000;0.000;2023-11-21T03:36:12;2.10;;;1.08;;
77160;SDS011;66135;0.000;0.000;2023-11-21T03:41:03;1.73;;;1.57;;
77160;SDS011;66135;0.000;0.000;2023-11-21T03:43:29;1.75;;;1.13;;
77160;SDS011;66135;0.000;0.000;2023-11-21T03:48:20;1.67;;;0.93;;
77160;SDS011;66135;0.000;0.000;2023-11-21T03:53:12;1.25;;;0.85;;
77160;SDS011;66135;0.000;0.000;2023-11-21T03:55:37;1.83;;;1.15;;
77160;SDS011;66135;0.000;0.000;2023-11-21T04:00:28;1.83;;;1.15;;
77160;SDS011;66135;0.000;0.000;2023-11-21T04:02:53;2.45;;;1.45;;
77160;SDS011;66135;0.000;0.000;2023-11-21T04:05:20;2.10;;;1.55;;
77160;SDS011;66135;0.000;0.000;2023-11-21T04:07:46;1.73;;;1.08;;
77160;SDS011;66135;0.000;0.000;2023-11-21T04:10:12;2.35;;;1.20;;
77160;SDS011;66135;0.000;0.000;2023-11-21T04:12:38;2.08;;;0.93;;
77160;SDS011;66135;0.000;0.000;2023-11-21T04:15:03;1.95;;;1.08;;
77160;SDS011;66135;0.000;0.000;2023-11-21T04:17:29;2.35;;;0.85;;
77160;SDS011;66135;0.000;0.000;2023-11-21T04:22:21;1.52;;;0.77;;
77160;SDS011;66135;0.000;0.000;2023-11-21T04:24:46;2.40;;;1.23;;
77160;SDS011;66135;0.000;0.000;2023-11-21T04:29:38;1.55;;;0.68;;
77160;SDS011;66135;0.000;0.000;2023-11-21T04:32:03;1.88;;;1.23;;
77160;SDS011;66135;0.000;0.000;2023-11-21T04:36:56;1.08;;;0.80;;
77160;SDS011;66135;0.000;0.000;2023-11-21T04:41:47;2.05;;;1.35;;
77160;SDS011;66135;0.000;0.000;2023-11-21T04:44:12;1.20;;;0.65;;
77160;SDS011;66135;0.000;0.000;2023-11-21T04:46:38;1.67;;;1.25;;
77160;SDS011;66135;0.000;0.000;2023-11-21T04:49:03;1.30;;;0.70;;
77160;SDS011;66135;0.000;0.000;2023-11-21T04:51:28;1.67;;;1.08;;
77160;SDS011;66135;0.000;0.000;2023-11-21T04:53:54;1.60;;;1.08;;
77160;SDS011;66135;0.000;0.000;2023-11-21T04:58:45;1.27;;;0.60;;
77160;SDS011;66135;0.000;0.000;2023-11-21T05:03:36;1.67;;;0.65;;
77160;SDS011;66135;0.000;0.000;2023-11-21T05:06:03;1.25;;;0.63;;
77160;SDS011;66135;0.000;0.000;2023-11-21T05:08:30;2.08;;;0.82;;
77160;SDS011;66135;0.000;0.000;2023-11-21T05:10:55;1.73;;;1.10;;
77160;SDS011;66135;0.000;0.000;2023-11-21T05:15:47;1.10;;;0.77;;
77160;SDS011;66135;0.000;0.000;2023-11-21T05:18:12;1.98;;;1.00;;
77160;SDS011;66135;0.000;0.000;2023-11-21T05:20:39;1.13;;;0.50;;
77160;SDS011;66135;0.000;0.000;2023-11-21T05:23:06;1.20;;;1.10;;
77160;SDS011;66135;0.000;0.000;2023-11-21T05:25:31;1.45;;;1.10;;
77160;SDS011;66135;0.000;0.000;2023-11-21T05:27:57;1.23;;;0.70;;
77160;SDS011;66135;0.000;0.000;2023-11-21T05:30:26;1.58;;;0.77;;
77160;SDS011;66135;0.000;0.000;2023-11-21T05:32:51;1.33;;;0.88;;
77160;SDS011;66135;0.000;0.000;2023-11-21T05:35:17;1.45;;;0.68;;
77160;SDS011;66135;0.000;0.000;2023-11-21T05:37:42;1.58;;;0.70;;
77160;SDS011;66135;0.000;0.000;2023-11-21T05:40:08;1.55;;;1.45;;
77160;SDS011;66135;0.000;0.000;2023-11-21T05:45:00;1.75;;;1.00;;
77160;SDS011;66135;0.000;0.000;2023-11-21T05:47:45;0.80;;;0.73;;
77160;SDS011;66135;0.000;0.000;2023-11-21T05:50:13;1.50;;;0.95;;
77160;SDS011;66135;0.000;0.000;2023-11-21T05:52:40;1.73;;;0.75;;
77160;SDS011;66135;0.000;0.000;2023-11-21T05:55:07;2.10;;;1.63;;
77160;SDS011;66135;0.000;0.000;2023-11-21T05:57:33;1.80;;;0.93;;
77160;SDS011;66135;0.000;0.000;2023-11-21T06:00:12;1.90;;;1.30;;
77160;SDS011;66135;0.000;0.000;2023-11-21T06:02:51;2.05;;;1.02;;
77160;SDS011;66135;0.000;0.000;2023-11-21T06:05:21;1.90;;;1.25;;
77160;SDS011;66135;0.000;0.000;2023-11-21T06:07:48;1.95;;;0.82;;
77160;SDS011;66135;0.000;0.000;2023-11-21T06:10:14;2.78;;;1.50;;
77160;SDS011;66135;0.000;0.000;2023-11-21T06:15:08;1.60;;;0.93;;
77160;SDS011;66135;0.000;0.000;2023-11-21T06:17:45;2.97;;;0.90;;
77160;SDS011;66135;0.000;0.000;2023-11-21T06:20:14;1.92;;;1.00;;
77160;SDS011;66135;0.000;0.000;2023-11-21T06:22:49;1.85;;;1.25;;
77160;SDS011;66135;0.000;0.000;2023-11-21T06:25:23;1.77;;;1.23;;
77160;SDS011;66135;0.000;0.000;2023-11-21T06:27:48;3.08;;;1.08;;
77160;SDS011;66135;0.000;0.000;2023-11-21T06:30:17;1.60;;;0.90;;
77160;SDS011;66135;0.000;0.000;2023-11-21T06:32:44;3.60;;;1.15;;
77160;SDS011;66135;0.000;0.000;2023-11-21T06:35:10;1.75;;;1.00;;
77160;SDS011;66135;0.000;0.000;2023-11-21T06:40:02;1.30;;;0.70;;
77160;SDS011;66135;0.000;0.000;2023-11-21T06:42:29;1.58;;;0.93;;
77160;SDS011;66135;0.000;0.000;2023-11-21T06:44:54;1.98;;;1.88;;
77160;SDS011;66135;0.000;0.000;2023-11-21T06:47:24;3.30;;;0.77;;
77160;SDS011;66135;0.000;0.000;2023-11-21T06:52:15;1.80;;;0.82;;
77160;SDS011;66135;0.000;0.000;2023-11-21T06:54:41;2.90;;;0.82;;
77160;SDS011;66135;0.000;0.000;2023-11-21T06:57:06;1.98;;;0.52;;
77160;SDS011;66135;0.000;0.000;2023-11-21T06:59:32;2.53;;;1.25;;
77160;SDS011;66135;0.000;0.000;2023-11-21T07:01:58;7.63;;;1.65;;
77160;SDS011;66135;0.000;0.000;2023-11-21T07:04:23;2.92;;;1.48;;
77160;SDS011;66135;0.000;0.000;2023-11-21T07:06:50;1.92;;;1.23;;
77160;SDS011;66135;0.000;0.000;2023-11-21T07:09:16;2.65;;;1.02;;
77160;SDS011;66135;0.000;0.000;2023-11-21T07:11:42;3.83;;;1.10;;
77160;SDS011;66135;0.000;0.000;2023-11-21T07:14:07;2.22;;;1.42;;
77160;SDS011;66135;0.000;0.000;2023-11-21T07:16:37;3.97;;;0.80;;
77160;SDS011;66135;0.000;0.000;2023-11-21T07:19:06;3.20;;;1.08;;
77160;SDS011;66135;0.000;0.000;2023-11-21T07:21:35;1.30;;;0.75;;
77160;SDS011;66135;0.000;0.000;2023-11-21T07:24:01;3.95;;;1.25;;
77160;SDS011;66135;0.000;0.000;2023-11-21T07:26:27;2.38;;;1.52;;
77160;SDS011;66135;0.000;0.000;2023-11-21T07:28:53;6.22;;;1.25;;
77160;SDS011;66135;0.000;0.000;2023-11-21T07:31:19;2.08;;;1.83;;
77160;SDS011;66135;0.000;0.000;2023-11-21T07:33:48;3.08;;;1.08;;
77160;SDS011;66135;0.000;0.000;2023-11-21T07:36:14;3.92;;;1.30;;
77160;SDS011;66135;0.000;0.000;2023-11-21T07:38:40;3.38;;;2.20;;
77160;SDS011;66135;0.000;0.000;2023-11-21T07:41:07;2.42;;;0.93;;
77160;SDS011;66135;0.000;0.000;2023-11-21T07:43:34;4.72;;;2.10;;
77160;SDS011;66135;0.000;0.000;2023-11-21T07:46:03;2.22;;;1.23;;
77160;SDS011;66135;0.000;0.000;2023-11-21T07:48:32;2.92;;;0.93;;
77160;SDS011;66135;0.000;0.000;2023-11-21T07:51:01;5.45;;;1.25;;
77160;SDS011;66135;0.000;0.000;2023-11-21T07:53:28;1.35;;;0.60;;
77160;SDS011;66135;0.000;0.000;2023-11-21T07:55:58;3.42;;;0.95;;
77160;SDS011;66135;0.000;0.000;2023-11-21T07:58:28;2.78;;;0.93;;
77160;SDS011;66135;0.000;0.000;2023-11-21T08:00:53;3.03;;;0.98;;
77160;SDS011;66135;0.000;0.000;2023-11-21T08:03:19;1.75;;;0.88;;
77160;SDS011;66135;0.000;0.000;2023-11-21T08:05:44;3.40;;;1.50;;
77160;SDS011;66135;0.000;0.000;2023-11-21T08:08:09;4.30;;;1.02;;
77160;SDS011;66135;0.000;0.000;2023-11-21T08:10:35;2.83;;;1.05;;
77160;SDS011;66135;0.000;0.000;2023-11-21T08:13:01;1.73;;;0.57;;
77160;SDS011;66135;0.000;0.000;2023-11-21T08:15:27;1.70;;;1.52;;
77160;SDS011;66135;0.000;0.000;2023-11-21T08:17:53;1.92;;;1.35;;
77160;SDS011;66135;0.000;0.000;2023-11-21T08:20:18;2.40;;;1.13;;
77160;SDS011;66135;0.000;0.000;2023-11-21T08:22:44;2.75;;;1.15;;
77160;SDS011;66135;0.000;0.000;2023-11-21T08:25:09;2.88;;;1.33;;
77160;SDS011;66135;0.000;0.000;2023-11-21T08:27:35;2.80;;;0.77;;
77160;SDS011;66135;0.000;0.000;2023-11-21T08:30:04;2.42;;;0.93;;
77160;SDS011;66135;0.000;0.000;2023-11-21T08:32:30;2.65;;;1.23;;
77160;SDS011;66135;0.000;0.000;2023-11-21T08:35:05;2.65;;;1.13;;
77160;SDS011;66135;0.000;0.000;2023-11-21T08:37:32;2.22;;;0.95;;
77160;SDS011;66135;0.000;0.000;2023-11-21T08:40:08;3.35;;;1.85;;
77160;SDS011;66135;0.000;0.000;2023-11-21T08:42:34;3.78;;;1.38;;
77160;SDS011;66135;0.000;0.000;2023-11-21T08:45:00;3.03;;;1.15;;
77160;SDS011;66135;0.000;0.000;2023-11-21T08:47:26;3.05;;;0.73;;
77160;SDS011;66135;0.000;0.000;2023-11-21T08:49:52;3.90;;;1.33;;
77160;SDS011;66135;0.000;0.000;2023-11-21T08:52:18;6.70;;;1.50;;
77160;SDS011;66135;0.000;0.000;2023-11-21T08:54:48;5.57;;;1.15;;
77160;SDS011;66135;0.000;0.000;2023-11-21T08:59:39;8.07;;;1.13;;
77160;SDS011;66135;0.000;0.000;2023-11-21T09:02:04;5.70;;;1.15;;
77160;SDS011;66135;0.000;0.000;2023-11-21T09:04:30;4.72;;;1.90;;
77160;SDS011;66135;0.000;0.000;2023-11-21T09:06:55;6.45;;;1.48;;
77160;SDS011;66135;0.000;0.000;2023-11-21T09:09:20;4.50;;;1.65;;
77160;SDS011;66135;0.000;0.000;2023-11-21T09:11:46;4.85;;;1.40;;
77160;SDS011;66135;0.000;0.000;2023-11-21T09:14:14;5.43;;;0.98;;
77160;SDS011;66135;0.000;0.000;2023-11-21T09:16:41;6.72;;;1.10;;
77160;SDS011;66135;0.000;0.000;2023-11-21T09:19:06;7.03;;;1.48;;
77160;SDS011;66135;0.000;0.000;2023-11-21T09:21:31;3.65;;;1.05;;
77160;SDS011;66135;0.000;0.000;2023-11-21T09:23:58;5.82;;;2.42;;
77160;SDS011;66135;0.000;0.000;2023-11-21T09:26:23;3.08;;;1.25;;
77160;SDS011;66135;0.000;0.000;2023-11-21T09:28:48;3.63;;;1.05;;
77160;SDS011;66135;0.000;0.000;2023-11-21T09:31:14;3.28;;;1.10;;
77160;SDS011;66135;0.000;0.000;2023-11-21T09:33:41;3.85;;;1.33;;
77160;SDS011;66135;0.000;0.000;2023-11-21T09:36:12;6.75;;;1.27;;
77160;SDS011;66135;0.000;0.000;2023-11-21T09:38:41;3.08;;;1.20;;
77160;SDS011;66135;0.000;0.000;2023-11-21T09:41:11;3.03;;;1.15;;
77160;SDS011;66135;0.000;0.000;2023-11-21T09:44:00;4.32;;;1.20;;
77160;SDS011;66135;0.000;0.000;2023-11-21T09:46:32;5.32;;;1.15;;
77160;SDS011;66135;0.000;0.000;2023-11-21T09:48:58;3.80;;;1.10;;
77160;SDS011;66135;0.000;0.000;2023-11-21T09:51:27;5.13;;;1.27;;
77160;SDS011;66135;0.000;0.000;2023-11-21T09:54:02;3.05;;;1.45;;
77160;SDS011;66135;0.000;0.000;2023-11-21T09:56:32;5.68;;;2.25;;
77160;SDS011;66135;0.000;0.000;2023-11-21T10:01:23;4.40;;;2.15;;
77160;SDS011;66135;0.000;0.000;2023-11-21T10:03:51;4.40;;;1.98;;
77160;SDS011;66135;0.000;0.000;2023-11-21T10:06:16;6.03;;;2.33;;
77160;SDS011;66135;0.000;0.000;2023-11-21T10:08:43;6.68;;;2.75;;
77160;SDS011;66135;0.000;0.000;2023-11-21T10:11:08;6.60;;;2.45;;
77160;SDS011;66135;0.000;0.000;2023-11-21T10:13:44;5.13;;;2.55;;
77160;SDS011;66135;0.000;0.000;2023-11-21T10:16:12;5.90;;;2.95;;
77160;SDS011;66135;0.000;0.000;2023-11-21T10:18:46;4.65;;;2.33;;
77160;SDS011;66135;0.000;0.000;2023-11-21T10:21:17;5.82;;;2.55;;
77160;SDS011;66135;0.000;0.000;2023-11-21T10:23:43;6.65;;;3.20;;
77160;SDS011;66135;0.000;0.000;2023-11-21T10:26:09;5.65;;;2.72;;
77160;SDS011;66135;0.000;0.000;2023-11-21T10:28:55;6.20;;;2.78;;
77160;SDS011;66135;0.000;0.000;2023-11-21T10:31:22;5.63;;;3.50;;
77160;SDS011;66135;0.000;0.000;2023-11-21T10:33:49;5.82;;;3.35;;
77160;SDS011;66135;0.000;0.000;2023-11-21T10:36:24;5.95;;;3.00;;
77160;SDS011;66135;0.000;0.000;2023-11-21T10:38:51;5.88;;;2.95;;
77160;SDS011;66135;0.000;0.000;2023-11-21T10:41:18;7.07;;;3.65;;
77160;SDS011;66135;0.000;0.000;2023-11-21T10:43:44;7.72;;;3.42;;
77160;SDS011;66135;0.000;0.000;2023-11-21T10:46:09;8.23;;;3.35;;
77160;SDS011;66135;0.000;0.000;2023-11-21T10:48:35;7.43;;;3.38;;
77160;SDS011;66135;0.000;0.000;2023-11-21T10:51:01;6.82;;;3.55;;
77160;SDS011;66135;0.000;0.000;2023-11-21T10:53:32;9.63;;;3.95;;
77160;SDS011;66135;0.000;0.000;2023-11-21T10:56:05;6.88;;;3.60;;
77160;SDS011;66135;0.000;0.000;2023-11-21T10:58:32;5.85;;;3.47;;
77160;SDS011;66135;0.000;0.000;2023-11-21T11:01:10;6.85;;;3.50;;
77160;SDS011;66135;0.000;0.000;2023-11-21T11:03:37;6.50;;;3.30;;
77160;SDS011;66135;0.000;0.000;2023-11-21T11:06:03;8.20;;;4.20;;
77160;SDS011;66135;0.000;0.000;2023-11-21T11:08:32;7.00;;;3.97;;
77160;SDS011;66135;0.000;0.000;2023-11-21T11:11:00;8.15;;;3.78;;
77160;SDS011;66135;0.000;0.000;2023-11-21T11:13:25;7.75;;;3.88;;
77160;SDS011;66135;0.000;0.000;2023-11-21T11:15:51;6.93;;;3.50;;
77160;SDS011;66135;0.000;0.000;2023-11-21T11:18:43;6.68;;;3.33;;
77160;SDS011;66135;0.000;0.000;2023-11-21T11:24:35;7.90;;;3.97;;
77160;SDS011;66135;0.000;0.000;2023-11-21T11:27:14;7.20;;;3.13;;
77160;SDS011;66135;0.000;0.000;2023-11-21T11:30:11;5.63;;;2.90;;
77160;SDS011;66135;0.000;0.000;2023-11-21T11:36:31;6.03;;;3.58;;
77160;SDS011;66135;0.000;0.000;2023-11-21T11:39:30;6.80;;;4.00;;
77160;SDS011;66135;0.000;0.000;2023-11-21T11:42:01;5.75;;;3.58;;
77160;SDS011;66135;0.000;0.000;2023-11-21T11:47:35;7.05;;;3.60;;
77160;SDS011;66135;0.000;0.000;2023-11-21T11:50:09;4.70;;;3.55;;
77160;SDS011;66135;0.000;0.000;2023-11-21T11:55:16;5.00;;;3.30;;
77160;SDS011;66135;0.000;0.000;2023-11-21T11:57:45;5.97;;;4.00;;
77160;SDS011;66135;0.000;0.000;2023-11-21T12:00:21;4.68;;;2.70;;
77160;SDS011;66135;0.000;0.000;2023-11-21T12:02:57;5.65;;;3.15;;
77160;SDS011;66135;0.000;0.000;2023-11-21T12:05:38;5.55;;;2.42;;
77160;SDS011;66135;0.000;0.000;2023-11-21T12:08:06;5.32;;;2.45;;
77160;SDS011;66135;0.000;0.000;2023-11-21T12:10:33;5.50;;;3.78;;
77160;SDS011;66135;0.000;0.000;2023-11-21T12:15:35;5.50;;;3.22;;
77160;SDS011;66135;0.000;0.000;2023-11-21T12:18:02;6.22;;;2.67;;
77160;SDS011;66135;0.000;0.000;2023-11-21T12:20:28;6.25;;;2.40;;
77160;SDS011;66135;0.000;0.000;2023-11-21T12:23:03;6.45;;;2.63;;
77160;SDS011;66135;0.000;0.000;2023-11-21T12:25:30;5.95;;;2.83;;
77160;SDS011;66135;0.000;0.000;2023-11-21T12:28:00;4.55;;;2.38;;
77160;SDS011;66135;0.000;0.000;2023-11-21T12:30:31;5.90;;;2.80;;
77160;SDS011;66135;0.000;0.000;2023-11-21T12:33:02;5.88;;;3.58;;
77160;SDS011;66135;0.000;0.000;2023-11-21T12:35:30;4.18;;;2.28;;
77160;SDS011;66135;0.000;0.000;2023-11-21T12:40:36;3.85;;;1.98;;
77160;SDS011;66135;0.000;0.000;2023-11-21T12:43:01;4.90;;;2.08;;
77160;SDS011;66135;0.000;0.000;2023-11-21T12:45:29;3.40;;;2.08;;
77160;SDS011;66135;0.000;0.000;2023-11-21T12:47:56;3.35;;;1.98;;
77160;SDS011;66135;0.000;0.000;2023-11-21T12:50:28;3.85;;;2.17;;
77160;SDS011;66135;0.000;0.000;2023-11-21T12:53:03;4.43;;;1.90;;
77160;SDS011;66135;0.000;0.000;2023-11-21T12:55:32;4.55;;;2.20;;
77160;SDS011;66135;0.000;0.000;2023-11-21T12:58:02;3.78;;;3.35;;
77160;SDS011;66135;0.000;0.000;2023-11-21T13:00:38;3.92;;;2.65;;
77160;SDS011;66135;0.000;0.000;2023-11-21T13:03:05;3.75;;;2.50;;
77160;SDS011;66135;0.000;0.000;2023-11-21T13:05:34;3.92;;;2.85;;
77160;SDS011;66135;0.000;0.000;2023-11-21T13:08:11;3.22;;;1.90;;
77160;SDS011;66135;0.000;0.000;2023-11-21T13:10:51;3.20;;;1.70;;
77160;SDS011;66135;0.000;0.000;2023-11-21T13:13:32;5.35;;;2.47;;
77160;SDS011;66135;0.000;0.000;2023-11-21T13:16:01;4.05;;;2.38;;
77160;SDS011;66135;0.000;0.000;2023-11-21T13:18:30;4.53;;;2.38;;
77160;SDS011;66135;0.000;0.000;2023-11-21T13:20:57;3.72;;;2.00;;
77160;SDS011;66135;0.000;0.000;2023-11-21T13:23:24;2.38;;;1.70;;
77160;SDS011;66135;0.000;0.000;2023-11-21T13:25:51;4.45;;;2.35;;
77160;SDS011;66135;0.000;0.000;2023-11-21T13:28:17;3.50;;;2.25;;
77160;SDS011;66135;0.000;0.000;2023-11-21T13:30:46;3.75;;;2.75;;
77160;SDS011;66135;0.000;0.000;2023-11-21T13:33:17;5.28;;;2.20;;
77160;SDS011;66135;0.000;0.000;2023-11-21T13:35:46;4.43;;;1.77;;
77160;SDS011;66135;0.000;0.000;2023-11-21T13:38:15;3.72;;;1.70;;
77160;SDS011;66135;0.000;0.000;2023-11-21T13:40:55;5.40;;;2.90;;
77160;SDS011;66135;0.000;0.000;2023-11-21T13:43:21;3.47;;;2.40;;
77160;SDS011;66135;0.000;0.000;2023-11-21T13:45:50;5.25;;;2.70;;
77160;SDS011;66135;0.000;0.000;2023-11-21T13:48:36;5.63;;;1.83;;
77160;SDS011;66135;0.000;0.000;2023-11-21T13:51:09;3.35;;;2.08;;
77160;SDS011;66135;0.000;0.000;2023-11-21T13:53:45;3.75;;;2.13;;
77160;SDS011;66135;0.000;0.000;2023-11-21T13:56:18;4.35;;;2.30;;
77160;SDS011;66135;0.000;0.000;2023-11-21T13:58:51;3.40;;;1.83;;
77160;SDS011;66135;0.000;0.000;2023-11-21T14:03:58;3.75;;;1.45;;
77160;SDS011;66135;0.000;0.000;2023-11-21T14:06:34;3.22;;;1.77;;
77160;SDS011;66135;0.000;0.000;2023-11-21T14:09:07;3.00;;;1.67;;
77160;SDS011;66135;0.000;0.000;2023-11-21T14:11:32;3.42;;;1.75;;
77160;SDS011;66135;0.000;0.000;2023-11-21T14:13:59;6.88;;;1.95;;
77160;SDS011;66135;0.000;0.000;2023-11-21T14:16:25;3.13;;;2.28;;
77160;SDS011;66135;0.000;0.000;2023-11-21T14:18:50;2.97;;;2.03;;
77160;SDS011;66135;0.000;0.000;2023-11-21T14:21:24;3.65;;;2.38;;
77160;SDS011;66135;0.000;0.000;2023-11-21T14:23:49;6.20;;;1.80;;
77160;SDS011;66135;0.000;0.000;2023-11-21T14:26:14;5.50;;;2.03;;
77160;SDS011;66135;0.000;0.000;2023-11-21T14:28:41;3.55;;;2.05;;
77160;SDS011;66135;0.000;0.000;2023-11-21T14:33:38;4.20;;;1.83;;
77160;SDS011;66135;0.000;0.000;2023-11-21T14:36:03;3.60;;;1.83;;
77160;SDS011;66135;0.000;0.000;2023-11-21T14:38:29;4.65;;;1.70;;
77160;SDS011;66135;0.000;0.000;2023-11-21T14:40:54;3.78;;;1.40;;
77160;SDS011;66135;0.000;0.000;2023-11-21T14:43:23;4.15;;;1.90;;
77160;SDS011;66135;0.000;0.000;2023-11-21T14:45:49;5.22;;;1.90;;
77160;SDS011;66135;0.000;0.000;2023-11-21T14:48:15;4.50;;;1.60;;
77160;SDS011;66135;0.000;0.000;2023-11-21T14:50:41;3.60;;;1.38;;
77160;SDS011;66135;0.000;0.000;2023-11-21T14:53:08;4.82;;;2.20;;
77160;SDS011;66135;0.000;0.000;2023-11-21T14:55:34;3.00;;;1.40;;
77160;SDS011;66135;0.000;0.000;2023-11-21T14:58:18;4.10;;;1.60;;
77160;SDS011;66135;0.000;0.000;2023-11-21T15:00:58;3.08;;;1.65;;
77160;SDS011;66135;0.000;0.000;2023-11-21T15:03:27;3.90;;;1.55;;
77160;SDS011;66135;0.000;0.000;2023-11-21T15:05:56;3.10;;;1.80;;
77160;SDS011;66135;0.000;0.000;2023-11-21T15:08:23;3.42;;;1.67;;
77160;SDS011;66135;0.000;0.000;2023-11-21T15:10:56;3.47;;;1.75;;
77160;SDS011;66135;0.000;0.000;2023-11-21T15:13:22;5.05;;;1.90;;
77160;SDS011;66135;0.000;0.000;2023-11-21T15:15:49;2.92;;;1.20;;
77160;SDS011;66135;0.000;0.000;2023-11-21T15:18:15;2.90;;;1.83;;
77160;SDS011;66135;0.000;0.000;2023-11-21T15:20:40;4.40;;;1.35;;
77160;SDS011;66135;0.000;0.000;2023-11-21T15:23:07;4.13;;;1.63;;
77160;SDS011;66135;0.000;0.000;2023-11-21T15:25:33;4.25;;;2.00;;
77160;SDS011;66135;0.000;0.000;2023-11-21T15:27:59;4.25;;;1.65;;
77160;SDS011;66135;0.000;0.000;2023-11-21T15:30:25;4.43;;;1.52;;
77160;SDS011;66135;0.000;0.000;2023-11-21T15:32:52;4.07;;;1.35;;
77160;SDS011;66135;0.000;0.000;2023-11-21T15:35:18;8.55;;;2.08;;
77160;SDS011;66135;0.000;0.000;2023-11-21T15:37:50;4.85;;;1.13;;
77160;SDS011;66135;0.000;0.000;2023-11-21T15:40:16;9.15;;;2.20;;
77160;SDS011;66135;0.000;0.000;2023-11-21T15:42:42;2.88;;;1.52;;
77160;SDS011;66135;0.000;0.000;2023-11-21T15:45:08;4.40;;;2.17;;
77160;SDS011;66135;0.000;0.000;2023-11-21T15:47:34;4.13;;;1.25;;
77160;SDS011;66135;0.000;0.000;2023-11-21T15:50:00;2.22;;;1.55;;
77160;SDS011;66135;0.000;0.000;2023-11-21T15:52:26;4.18;;;1.77;;
77160;SDS011;66135;0.000;0.000;2023-11-21T15:54:53;4.00;;;2.45;;
77160;SDS011;66135;0.000;0.000;2023-11-21T15:57:19;4.60;;;1.65;;
77160;SDS011;66135;0.000;0.000;2023-11-21T16:00:04;4.13;;;1.38;;
77160;SDS011;66135;0.000;0.000;2023-11-21T16:02:36;3.85;;;1.58;;
77160;SDS011;66135;0.000;0.000;2023-11-21T16:05:10;5.13;;;1.63;;
77160;SDS011;66135;0.000;0.000;2023-11-21T16:07:39;4.68;;;1.95;;
77160;SDS011;66135;0.000;0.000;2023-11-21T16:10:06;3.20;;;1.60;;
77160;SDS011;66135;0.000;0.000;2023-11-21T16:12:38;4.13;;;1.35;;
77160;SDS011;66135;0.000;0.000;2023-11-21T16:15:12;1.88;;;1.05;;
77160;SDS011;66135;0.000;0.000;2023-11-21T16:17:38;5.85;;;2.35;;
77160;SDS011;66135;0.000;0.000;2023-11-21T16:20:04;3.40;;;1.75;;
77160;SDS011;66135;0.000;0.000;2023-11-21T16:22:38;4.65;;;1.83;;
77160;SDS011;66135;0.000;0.000;2023-11-21T16:25:04;6.88;;;2.28;;
77160;SDS011;66135;0.000;0.000;2023-11-21T16:27:31;6.57;;;1.88;;
77160;SDS011;66135;0.000;0.000;2023-11-21T16:29:57;5.10;;;1.92;;
77160;SDS011;66135;0.000;0.000;2023-11-21T16:32:23;5.20;;;1.92;;
77160;SDS011;66135;0.000;0.000;2023-11-21T16:34:48;3.38;;;2.00;;
77160;SDS011;66135;0.000;0.000;2023-11-21T16:37:14;7.13;;;2.28;;
77160;SDS011;66135;0.000;0.000;2023-11-21T16:39:39;4.38;;;2.10;;
77160;SDS011;66135;0.000;0.000;2023-11-21T16:42:06;3.17;;;1.88;;
77160;SDS011;66135;0.000;0.000;2023-11-21T16:44:32;4.55;;;1.63;;
77160;SDS011;66135;0.000;0.000;2023-11-21T16:49:29;2.80;;;1.63;;
77160;SDS011;66135;0.000;0.000;2023-11-21T16:51:56;3.90;;;1.65;;
77160;SDS011;66135;0.000;0.000;2023-11-21T16:54:22;5.18;;;1.83;;
77160;SDS011;66135;0.000;0.000;2023-11-21T16:56:47;4.18;;;1.90;;
77160;SDS011;66135;0.000;0.000;2023-11-21T16:59:13;5.13;;;2.47;;
77160;SDS011;66135;0.000;0.000;2023-11-21T17:01:38;3.20;;;1.40;;
77160;SDS011;66135;0.000;0.000;2023-11-21T17:04:04;4.13;;;1.80;;
77160;SDS011;66135;0.000;0.000;2023-11-21T17:06:30;7.63;;;1.80;;
77160;SDS011;66135;0.000;0.000;2023-11-21T17:08:56;3.05;;;1.58;;
77160;SDS011;66135;0.000;0.000;2023-11-21T17:11:22;2.05;;;0.90;;
77160;SDS011;66135;0.000;0.000;2023-11-21T17:16:13;3.28;;;1.30;;
77160;SDS011;66135;0.000;0.000;2023-11-21T17:18:39;3.08;;;1.08;;
77160;SDS011;66135;0.000;0.000;2023-11-21T17:21:04;4.30;;;2.03;;
77160;SDS011;66135;0.000;0.000;2023-11-21T17:23:30;2.78;;;1.17;;
77160;SDS011;66135;0.000;0.000;2023-11-21T17:28:21;3.10;;;1.13;;